Time;durP1;ratioP1;P1;durP2;ratioP2;P2;SDS_P1;SDS_P2;PMS_P1;PMS_P2;Temp;Humidity;BMP_temperature;BMP_pressure;BME280_temperature;BME280_humidity;BME280_pressure;Samples;Min_cycle;Max_cycle;Signal;HPM_P1;HPM_P2
2022/12/31 00:03:14;;;;;;;;;;;21.30;41.50;;;;;;8330124;28;20339;-45
2022/12/31 00:07:15;;;;;;;;;;;21.30;41.50;;;;;;8329853;28;20020;-46
2022/12/31 00:11:15;;;;;;;;;;;21.30;41.50;;;;;;8329370;28;19925;-45
2022/12/31 00:15:16;;;;;;;;;;;21.30;41.40;;;;;;8330107;28;19987;-45
2022/12/31 00:19:17;;;;;;;;;;;21.20;41.50;;;;;;8329800;28;20055;-46
2022/12/31 00:23:17;;;;;;;;;;;21.20;41.60;;;;;;8329573;28;19944;-46
2022/12/31 00:27:18;;;;;;;;;;;21.20;41.50;;;;;;8329468;28;20059;-46
2022/12/31 00:31:22;;;;;;;;;;;21.10;41.50;;;;;;8329554;28;19924;-45
2022/12/31 00:35:23;;;;;;;;;;;21.10;41.50;;;;;;8329178;28;19925;-45
2022/12/31 00:39:23;;;;;;;;;;;21.10;41.60;;;;;;8329428;28;21028;-46
2022/12/31 00:43:24;;;;;;;;;;;21.10;41.60;;;;;;8329096;28;19920;-44
2022/12/31 00:47:25;;;;;;;;;;;21.10;41.50;;;;;;8329211;28;19925;-45
2022/12/31 00:51:26;;;;;;;;;;;21.00;41.50;;;;;;8334049;28;19922;-46
2022/12/31 00:55:26;;;;;;;;;;;21.00;41.50;;;;;;8335000;28;19925;-45
2022/12/31 00:59:27;;;;;;;;;;;21.00;41.50;;;;;;8335463;28;20374;-45
2022/12/31 01:03:27;;;;;;;;;;;21.00;41.60;;;;;;8335357;28;19914;-46
2022/12/31 01:07:28;;;;;;;;;;;20.90;41.50;;;;;;8334568;28;19925;-45
2022/12/31 01:11:28;;;;;;;;;;;20.90;41.50;;;;;;8335172;28;19917;-45
2022/12/31 01:15:32;;;;;;;;;;;20.90;41.60;;;;;;8334801;28;19918;-45
2022/12/31 01:19:32;;;;;;;;;;;20.90;41.60;;;;;;8334238;28;19913;-44
2022/12/31 01:23:33;;;;;;;;;;;20.90;41.60;;;;;;8335152;28;19913;-46
2022/12/31 01:27:33;;;;;;;;;;;20.90;41.60;;;;;;8334292;28;19932;-46
2022/12/31 01:31:34;;;;;;;;;;;20.80;41.50;;;;;;8334099;28;20358;-45
2022/12/31 01:35:35;;;;;;;;;;;20.80;41.50;;;;;;8334098;28;19917;-46
2022/12/31 01:39:35;;;;;;;;;;;20.80;41.60;;;;;;8334373;28;19967;-45
2022/12/31 01:43:44;;;;;;;;;;;20.80;41.50;;;;;;8333637;28;19913;-46
2022/12/31 01:47:46;;;;;;;;;;;20.80;41.60;;;;;;8333743;28;20396;-45
2022/12/31 01:51:55;;;;;;;;;;;20.70;41.60;;;;;;8334060;28;19921;-45
2022/12/31 01:55:57;;;;;;;;;;;20.70;41.60;;;;;;8333231;28;19917;-45
2022/12/31 01:59:59;;;;;;;;;;;20.70;41.60;;;;;;8333492;28;19925;-45
2022/12/31 02:04:03;;;;;;;;;;;20.70;41.70;;;;;;8333459;28;20004;-46
2022/12/31 02:08:04;;;;;;;;;;;20.70;41.60;;;;;;8332791;28;20440;-45
2022/12/31 02:12:06;;;;;;;;;;;20.70;41.60;;;;;;8313603;28;19917;-45
2022/12/31 02:16:20;;;;;;;;;;;20.60;41.60;;;;;;8311664;28;20302;-47
2022/12/31 02:20:39;;;;;;;;;;;20.60;41.60;;;;;;8332546;28;19971;-45
2022/12/31 02:24:49;;;;;;;;;;;20.60;41.60;;;;;;8333072;28;19917;-45
2022/12/31 02:28:53;;;;;;;;;;;20.60;41.60;;;;;;8332273;28;19925;-45
2022/12/31 02:33:01;;;;;;;;;;;20.60;41.60;;;;;;8332493;28;20757;-45
2022/12/31 02:37:03;;;;;;;;;;;20.50;41.60;;;;;;8332360;28;19983;-45
2022/12/31 02:41:04;;;;;;;;;;;20.50;41.60;;;;;;8331746;28;19924;-45
2022/12/31 02:45:05;;;;;;;;;;;20.50;41.60;;;;;;8332091;28;20270;-45
2022/12/31 02:49:09;;;;;;;;;;;20.50;41.60;;;;;;8332504;28;20366;-45
2022/12/31 02:53:19;;;;;;;;;;;20.50;41.60;;;;;;8331683;28;20321;-45
2022/12/31 02:57:25;;;;;;;;;;;20.50;41.60;;;;;;8331905;28;20012;-45
2022/12/31 03:05:48;;;;;;;;;;;20.50;41.70;;;;;;8331736;28;19924;-46
2022/12/31 03:09:49;;;;;;;;;;;20.40;41.60;;;;;;8331794;28;20338;-45
2022/12/31 03:13:49;;;;;;;;;;;20.40;41.60;;;;;;8330169;28;19932;-45
2022/12/31 03:17:59;;;;;;;;;;;20.40;41.70;;;;;;8331071;28;19924;-45
2022/12/31 03:26:35;;;;;;;;;;;20.40;41.70;;;;;;8229750;28;19924;-45
2022/12/31 03:30:37;;;;;;;;;;;20.40;41.60;;;;;;8229873;28;20269;-45
2022/12/31 03:34:37;;;;;;;;;;;20.40;41.70;;;;;;8275016;28;20012;-45
2022/12/31 03:38:38;;;;;;;;;;;20.30;41.70;;;;;;8325566;28;19928;-45
2022/12/31 03:42:38;;;;;;;;;;;20.30;41.60;;;;;;8330576;28;20322;-45
2022/12/31 03:46:39;;;;;;;;;;;20.30;41.60;;;;;;8330009;28;19913;-44
2022/12/31 03:50:39;;;;;;;;;;;20.30;41.60;;;;;;8330587;28;19927;-45
2022/12/31 03:54:40;;;;;;;;;;;20.20;41.50;;;;;;8330654;28;20285;-45
2022/12/31 03:58:40;;;;;;;;;;;20.20;41.60;;;;;;8329814;28;19917;-46
2022/12/31 04:02:41;;;;;;;;;;;20.30;41.60;;;;;;8330193;28;19921;-46
2022/12/31 04:06:41;;;;;;;;;;;20.30;41.60;;;;;;8330062;28;20011;-46
2022/12/31 04:10:41;;;;;;;;;;;20.20;41.60;;;;;;8329544;28;20384;-46
2022/12/31 04:14:42;;;;;;;;;;;20.20;41.50;;;;;;8330275;28;19913;-45
2022/12/31 04:18:42;;;;;;;;;;;20.20;41.70;;;;;;8329866;28;20057;-45
2022/12/31 04:22:43;;;;;;;;;;;20.20;41.70;;;;;;8330167;28;19917;-46
2022/12/31 04:26:44;;;;;;;;;;;20.20;41.60;;;;;;8336345;28;20384;-45
2022/12/31 04:30:44;;;;;;;;;;;20.30;41.70;;;;;;8336408;28;19921;-45
2022/12/31 04:34:44;;;;;;;;;;;20.30;41.60;;;;;;8336144;28;19959;-46
2022/12/31 04:38:45;;;;;;;;;;;20.30;41.60;;;;;;8336035;28;19963;-45
2022/12/31 04:42:45;;;;;;;;;;;20.40;41.60;;;;;;8335894;28;20362;-45
2022/12/31 04:46:46;;;;;;;;;;;20.40;41.50;;;;;;8335362;28;19921;-45
2022/12/31 04:50:46;;;;;;;;;;;20.40;41.50;;;;;;8335518;28;19921;-45
2022/12/31 04:54:46;;;;;;;;;;;20.40;41.50;;;;;;8335890;28;19917;-45
2022/12/31 04:58:47;;;;;;;;;;;20.50;41.50;;;;;;8334994;28;19943;-45
2022/12/31 05:02:47;;;;;;;;;;;20.50;41.50;;;;;;8335228;28;19928;-45
2022/12/31 05:06:48;;;;;;;;;;;20.60;41.50;;;;;;8334125;28;20047;-45
2022/12/31 05:10:50;;;;;;;;;;;20.50;41.40;;;;;;8334072;28;21290;-45
2022/12/31 05:14:50;;;;;;;;;;;20.60;41.40;;;;;;8334988;28;19921;-45
2022/12/31 05:18:51;;;;;;;;;;;20.60;41.30;;;;;;8335020;28;19921;-46
2022/12/31 05:22:51;;;;;;;;;;;20.60;41.30;;;;;;8334383;28;19967;-46
2022/12/31 05:26:52;;;;;;;;;;;20.60;41.30;;;;;;8334454;28;19913;-45
2022/12/31 05:30:52;;;;;;;;;;;20.70;41.30;;;;;;8334608;28;20361;-44
2022/12/31 05:34:53;;;;;;;;;;;20.70;41.30;;;;;;8333247;28;19924;-46
2022/12/31 05:38:53;;;;;;;;;;;20.70;41.30;;;;;;8334529;28;19925;-45
2022/12/31 05:42:53;;;;;;;;;;;20.70;41.20;;;;;;8333976;28;19917;-45
2022/12/31 05:46:54;;;;;;;;;;;20.80;41.30;;;;;;8333300;28;19940;-44
2022/12/31 05:50:55;;;;;;;;;;;20.80;41.30;;;;;;8334314;28;19925;-45
2022/12/31 05:54:55;;;;;;;;;;;20.80;41.30;;;;;;8333741;28;19917;-45
2022/12/31 05:58:55;;;;;;;;;;;20.80;41.20;;;;;;8333150;28;20294;-46
2022/12/31 06:02:56;;;;;;;;;;;20.90;41.20;;;;;;8333757;28;19917;-45
2022/12/31 06:06:56;;;;;;;;;;;20.90;41.10;;;;;;8333442;28;19917;-45
2022/12/31 06:10:57;;;;;;;;;;;20.80;41.20;;;;;;8333147;28;19921;-45
2022/12/31 06:14:57;;;;;;;;;;;20.90;41.20;;;;;;8333373;28;20035;-45
2022/12/31 06:18:58;;;;;;;;;;;20.90;41.20;;;;;;8332952;28;19932;-44
2022/12/31 06:22:58;;;;;;;;;;;20.90;41.20;;;;;;8332460;28;19924;-46
2022/12/31 06:26:59;;;;;;;;;;;20.90;41.10;;;;;;8332950;28;19935;-45
2022/12/31 06:31:00;;;;;;;;;;;20.90;41.00;;;;;;8332810;28;20413;-45
2022/12/31 06:35:01;;;;;;;;;;;20.90;41.10;;;;;;8332178;28;19923;-44
2022/12/31 06:39:01;;;;;;;;;;;21.00;41.10;;;;;;8332238;28;19921;-44
2022/12/31 06:43:02;;;;;;;;;;;21.00;41.00;;;;;;8332221;28;19923;-45
2022/12/31 06:47:02;;;;;;;;;;;21.00;41.10;;;;;;8330561;28;20344;-45
2022/12/31 06:51:04;;;;;;;;;;;21.00;41.00;;;;;;8332206;28;20051;-44
2022/12/31 06:55:05;;;;;;;;;;;21.00;41.00;;;;;;8332024;28;19932;-45
2022/12/31 06:59:05;;;;;;;;;;;21.00;41.00;;;;;;8331228;28;20297;-45
2022/12/31 07:03:13;;;;;;;;;;;21.00;41.00;;;;;;8331847;28;20851;-45
2022/12/31 07:07:23;;;;;;;;;;;21.00;41.00;;;;;;8331490;28;20262;-46
2022/12/31 07:11:29;;;;;;;;;;;21.00;41.00;;;;;;8331306;28;20000;-45
2022/12/31 07:15:32;;;;;;;;;;;21.00;40.90;;;;;;8331409;28;20004;-46
2022/12/31 07:19:35;;;;;;;;;;;21.00;40.80;;;;;;8330704;28;19921;-46
2022/12/31 07:23:36;;;;;;;;;;;21.10;40.90;;;;;;8331310;28;19917;-45
2022/12/31 07:27:55;;;;;;;;;;;21.10;40.90;;;;;;8330983;28;19925;-45
2022/12/31 07:31:55;;;;;;;;;;;21.00;40.80;;;;;;8330289;28;19918;-45
2022/12/31 07:36:02;;;;;;;;;;;21.10;40.80;;;;;;8331398;28;20017;-46
2022/12/31 07:40:03;;;;;;;;;;;21.10;40.80;;;;;;8330662;28;19917;-46
2022/12/31 07:44:11;;;;;;;;;;;21.10;40.80;;;;;;8329937;28;19992;-45
2022/12/31 07:48:23;;;;;;;;;;;21.10;40.80;;;;;;8330328;28;20019;-45
2022/12/31 07:52:24;;;;;;;;;;;21.10;40.80;;;;;;8330305;28;19921;-44
2022/12/31 07:56:24;;;;;;;;;;;21.10;40.70;;;;;;8330695;28;19920;-45
2022/12/31 08:00:25;;;;;;;;;;;21.20;40.70;;;;;;8329845;28;19956;-45
2022/12/31 08:04:45;;;;;;;;;;;21.20;40.70;;;;;;8329721;28;19924;-45
2022/12/31 08:08:48;;;;;;;;;;;21.10;40.70;;;;;;8318863;28;19972;-45
2022/12/31 08:12:49;;;;;;;;;;;21.20;40.70;;;;;;8329817;28;19921;-44
2022/12/31 08:16:49;;;;;;;;;;;21.20;40.70;;;;;;8329789;28;19935;-45
2022/12/31 08:21:08;;;;;;;;;;;21.20;40.70;;;;;;8329844;28;19921;-45
2022/12/31 08:25:12;;;;;;;;;;;21.20;40.60;;;;;;8329873;28;19917;-44
2022/12/31 08:29:12;;;;;;;;;;;21.20;40.60;;;;;;8329094;28;20055;-45
2022/12/31 08:33:18;;;;;;;;;;;21.20;40.60;;;;;;8329626;28;19917;-45
2022/12/31 08:37:40;;;;;;;;;;;21.20;40.60;;;;;;8329525;28;19960;-45
2022/12/31 08:41:42;;;;;;;;;;;21.20;40.50;;;;;;8329351;28;19919;-45
2022/12/31 08:45:47;;;;;;;;;;;21.20;40.60;;;;;;8329616;28;19917;-45
2022/12/31 08:49:48;;;;;;;;;;;21.30;40.60;;;;;;8328935;28;19983;-47
2022/12/31 08:53:49;;;;;;;;;;;21.30;40.60;;;;;;8329781;28;19925;-46
2022/12/31 08:57:52;;;;;;;;;;;21.30;40.60;;;;;;8329367;28;19917;-47
2022/12/31 09:01:52;;;;;;;;;;;21.30;40.60;;;;;;8329167;28;19913;-45
2022/12/31 09:06:26;;;;;;;;;;;21.30;41.20;;;;;;8329063;28;19921;-46
2022/12/31 09:10:32;;;;;;;;;;;21.30;40.50;;;;;;8285524;28;20386;-45
2022/12/31 09:14:47;;;;;;;;;;;21.30;40.60;;;;;;8319032;28;19921;-48
2022/12/31 09:18:47;;;;;;;;;;;21.30;40.50;;;;;;8335033;28;19917;-46
2022/12/31 09:22:48;;;;;;;;;;;21.30;40.60;;;;;;8334304;28;20389;-46
2022/12/31 09:27:11;;;;;;;;;;;21.30;40.60;;;;;;8334746;28;20023;-46
2022/12/31 09:31:14;;;;;;;;;;;21.40;40.60;;;;;;8334567;28;19936;-47
2022/12/31 09:35:29;;;;;;;;;;;21.40;40.60;;;;;;8333980;28;19959;-47
2022/12/31 09:39:35;;;;;;;;;;;21.40;40.60;;;;;;8334394;28;20428;-46
2022/12/31 09:43:54;;;;;;;;;;;21.40;40.60;;;;;;8333605;28;19925;-47
2022/12/31 09:48:21;;;;;;;;;;;21.40;40.60;;;;;;8333771;28;19921;-48
2022/12/31 09:52:37;;;;;;;;;;;21.40;40.60;;;;;;8334173;28;20054;-45
2022/12/31 09:56:56;;;;;;;;;;;21.40;40.60;;;;;;8333785;28;19917;-46
2022/12/31 10:01:03;;;;;;;;;;;21.40;40.60;;;;;;8333882;28;19917;-46
2022/12/31 10:05:21;;;;;;;;;;;21.40;40.60;;;;;;8333152;28;19921;-47
2022/12/31 10:09:28;;;;;;;;;;;21.40;40.60;;;;;;8333484;28;20043;-47
2022/12/31 10:13:38;;;;;;;;;;;21.40;40.70;;;;;;8332735;28;19917;-48
2022/12/31 10:17:46;;;;;;;;;;;21.40;40.60;;;;;;8333486;28;19913;-46
2022/12/31 10:21:52;;;;;;;;;;;21.40;40.70;;;;;;8332805;28;19917;-47
2022/12/31 10:26:04;;;;;;;;;;;21.40;40.70;;;;;;8332484;28;19917;-46
2022/12/31 10:30:10;;;;;;;;;;;21.40;40.60;;;;;;8332950;28;20028;-46
2022/12/31 10:34:13;;;;;;;;;;;21.40;40.70;;;;;;8332424;28;19924;-45
2022/12/31 10:38:32;;;;;;;;;;;21.40;40.70;;;;;;8331898;28;20402;-46
2022/12/31 10:42:32;;;;;;;;;;;21.40;40.70;;;;;;8332496;28;20290;-44
2022/12/31 10:46:52;;;;;;;;;;;21.40;40.70;;;;;;8331656;28;19917;-46
2022/12/31 10:50:52;;;;;;;;;;;21.40;40.70;;;;;;8331872;28;19925;-45
2022/12/31 10:55:11;;;;;;;;;;;21.40;40.70;;;;;;8331955;28;20374;-46
2022/12/31 10:59:15;;;;;;;;;;;21.40;40.70;;;;;;8331340;28;20048;-46
2022/12/31 11:03:18;;;;;;;;;;;21.40;40.80;;;;;;8331716;28;20325;-45
2022/12/31 11:07:32;;;;;;;;;;;21.40;40.80;;;;;;8330382;28;20039;-46
2022/12/31 11:12:10;;;;;;;;;;;21.40;40.80;;;;;;8331304;28;20267;-45
2022/12/31 11:16:18;;;;;;;;;;;21.50;40.80;;;;;;8262688;28;19918;-46
2022/12/31 11:20:36;;;;;;;;;;;21.50;40.80;;;;;;8295617;28;19924;-46
2022/12/31 11:24:45;;;;;;;;;;;21.40;40.80;;;;;;8331219;28;20012;-45
2022/12/31 11:29:04;;;;;;;;;;;21.50;40.80;;;;;;8330466;28;19987;-46
2022/12/31 11:33:25;;;;;;;;;;;21.40;40.80;;;;;;8330564;28;19920;-45
2022/12/31 11:37:44;;;;;;;;;;;21.50;40.80;;;;;;8330493;28;19925;-44
2022/12/31 11:41:58;;;;;;;;;;;21.40;40.80;;;;;;8330875;28;19917;-46
2022/12/31 11:46:18;;;;;;;;;;;21.50;40.90;;;;;;8330744;28;19917;-45
2022/12/31 11:50:37;;;;;;;;;;;21.50;40.90;;;;;;8330293;28;20444;-45
2022/12/31 11:54:51;;;;;;;;;;;21.50;40.90;;;;;;8330391;28;19990;-46
2022/12/31 11:58:54;;;;;;;;;;;21.50;40.90;;;;;;8329926;28;19941;-46
2022/12/31 12:02:58;;;;;;;;;;;21.50;40.90;;;;;;8330461;28;19917;-47
2022/12/31 12:06:58;;;;;;;;;;;21.50;40.90;;;;;;8330230;28;20426;-46
2022/12/31 12:11:04;;;;;;;;;;;21.50;40.80;;;;;;8329618;28;19925;-46
2022/12/31 12:15:08;;;;;;;;;;;21.50;40.90;;;;;;8330017;28;19925;-45
2022/12/31 12:19:15;;;;;;;;;;;21.50;40.90;;;;;;8329881;28;20004;-45
2022/12/31 12:23:20;;;;;;;;;;;21.50;40.90;;;;;;8329639;28;19952;-45
2022/12/31 12:27:27;;;;;;;;;;;21.50;40.90;;;;;;8330020;28;19917;-45
2022/12/31 12:31:27;;;;;;;;;;;21.50;40.80;;;;;;8329384;28;19996;-44
2022/12/31 12:35:29;;;;;;;;;;;21.60;40.90;;;;;;8329674;28;19917;-45
2022/12/31 12:39:31;;;;;;;;;;;21.50;40.80;;;;;;8329835;28;20413;-45
2022/12/31 12:43:35;;;;;;;;;;;21.50;40.80;;;;;;8329890;28;19913;-46
2022/12/31 12:47:35;;;;;;;;;;;21.50;40.80;;;;;;8335863;28;20060;-46
2022/12/31 12:51:42;;;;;;;;;;;21.50;40.90;;;;;;8335903;28;19921;-45
2022/12/31 12:56:05;;;;;;;;;;;21.50;40.90;;;;;;8335347;28;19925;-46
2022/12/31 13:00:08;;;;;;;;;;;21.50;40.90;;;;;;8335546;28;19948;-46
2022/12/31 13:04:18;;;;;;;;;;;21.50;40.90;;;;;;8335443;28;20298;-45
2022/12/31 13:08:31;;;;;;;;;;;21.50;41.00;;;;;;8334978;28;19928;-45
2022/12/31 13:12:31;;;;;;;;;;;21.50;41.00;;;;;;8322266;28;19964;-45
2022/12/31 13:16:52;;;;;;;;;;;21.50;41.50;;;;;;8332499;28;19921;-46
2022/12/31 13:20:57;;;;;;;;;;;21.50;41.00;;;;;;8321470;28;19924;-46
2022/12/31 13:25:06;;;;;;;;;;;21.50;41.00;;;;;;8320870;28;19918;-44
2022/12/31 13:29:12;;;;;;;;;;;21.50;41.00;;;;;;8326779;28;20534;-45
2022/12/31 13:33:14;;;;;;;;;;;21.50;41.00;;;;;;8331770;28;20374;-46
2022/12/31 13:37:24;;;;;;;;;;;21.50;41.00;;;;;;8335609;28;19921;-45
2022/12/31 13:41:37;;;;;;;;;;;21.50;41.00;;;;;;8332312;28;19928;-45
2022/12/31 13:45:39;;;;;;;;;;;21.50;41.00;;;;;;8330185;28;19921;-46
2022/12/31 13:49:47;;;;;;;;;;;21.50;41.00;;;;;;8318366;28;19926;-46
2022/12/31 13:53:51;;;;;;;;;;;21.50;41.10;;;;;;8332771;28;19953;-46
2022/12/31 13:58:05;;;;;;;;;;;21.50;41.00;;;;;;8327867;28;20007;-46
2022/12/31 14:02:13;;;;;;;;;;;21.50;41.00;;;;;;8307817;28;19918;-46
2022/12/31 14:06:32;;;;;;;;;;;21.60;41.10;;;;;;8320290;28;19917;-47
2022/12/31 14:10:51;;;;;;;;;;;21.50;41.00;;;;;;8308369;28;20137;-44
2022/12/31 14:15:05;;;;;;;;;;;21.50;41.00;;;;;;8333646;28;19922;-45
2022/12/31 14:19:06;;;;;;;;;;;21.50;41.00;;;;;;8331469;28;19940;-44
2022/12/31 14:23:15;;;;;;;;;;;21.50;41.00;;;;;;8305727;28;20044;-44
2022/12/31 14:27:19;;;;;;;;;;;21.60;41.10;;;;;;8327101;28;19928;-45
2022/12/31 14:31:19;;;;;;;;;;;21.50;41.00;;;;;;8317664;28;20367;-46
2022/12/31 14:35:28;;;;;;;;;;;21.50;41.10;;;;;;8328935;28;20012;-45
2022/12/31 14:39:31;;;;;;;;;;;21.50;41.10;;;;;;8331380;28;19921;-45
2022/12/31 14:43:47;;;;;;;;;;;21.60;41.10;;;;;;8326971;28;19924;-45
2022/12/31 14:47:50;;;;;;;;;;;21.60;41.10;;;;;;8332223;28;19925;-46
2022/12/31 14:51:50;;;;;;;;;;;21.60;41.10;;;;;;8330008;28;19921;-45
2022/12/31 14:55:58;;;;;;;;;;;21.60;41.10;;;;;;8312445;28;19971;-47
2022/12/31 15:00:00;;;;;;;;;;;21.60;41.10;;;;;;8329460;28;19917;-46
2022/12/31 15:04:00;;;;;;;;;;;21.50;41.10;;;;;;8318517;28;19917;-46
2022/12/31 15:08:19;;;;;;;;;;;21.50;41.10;;;;;;8318625;28;19932;-46
2022/12/31 15:12:20;;;;;;;;;;;21.50;41.10;;;;;;8316184;28;20000;-46
2022/12/31 15:16:20;;;;;;;;;;;21.60;41.20;;;;;;8329381;28;19917;-46
2022/12/31 15:20:36;;;;;;;;;;;21.60;41.20;;;;;;8327502;28;19917;-46
2022/12/31 15:24:42;;;;;;;;;;;21.50;41.10;;;;;;8309452;28;19918;-46
2022/12/31 15:28:42;;;;;;;;;;;21.60;41.20;;;;;;8328156;28;20235;-46
2022/12/31 15:32:45;;;;;;;;;;;21.60;41.20;;;;;;8328908;28;19925;-45
2022/12/31 15:36:52;;;;;;;;;;;21.60;41.20;;;;;;8329841;28;19918;-46
2022/12/31 15:40:52;;;;;;;;;;;21.60;41.10;;;;;;8328930;28;20040;-46
2022/12/31 15:44:59;;;;;;;;;;;21.60;41.10;;;;;;8326412;28;20290;-46
2022/12/31 15:49:16;;;;;;;;;;;21.60;41.20;;;;;;8327708;28;19929;-46
2022/12/31 15:53:25;;;;;;;;;;;21.60;41.10;;;;;;8328717;28;20016;-46
2022/12/31 15:57:31;;;;;;;;;;;21.60;41.10;;;;;;8330151;28;19917;-47
2022/12/31 16:01:33;;;;;;;;;;;21.60;41.20;;;;;;8323215;28;19917;-46
2022/12/31 16:05:34;;;;;;;;;;;21.60;41.20;;;;;;8305858;28;19972;-45
2022/12/31 16:09:34;;;;;;;;;;;21.60;41.10;;;;;;8330393;28;20346;-46
2022/12/31 16:13:40;;;;;;;;;;;21.60;41.10;;;;;;8319693;28;19971;-46
2022/12/31 16:17:41;;;;;;;;;;;21.60;41.10;;;;;;8319258;28;20251;-46
2022/12/31 16:21:44;;;;;;;;;;;21.60;41.10;;;;;;8334614;28;19917;-46
2022/12/31 16:25:45;;;;;;;;;;;21.60;41.10;;;;;;8326230;28;19929;-46
2022/12/31 16:29:56;;;;;;;;;;;21.60;41.10;;;;;;8334536;28;19987;-45
2022/12/31 16:34:10;;;;;;;;;;;21.60;41.10;;;;;;8332713;28;19926;-45
2022/12/31 16:38:11;;;;;;;;;;;21.60;41.00;;;;;;8335873;28;19917;-45
2022/12/31 16:42:21;;;;;;;;;;;21.60;41.00;;;;;;8336326;28;19924;-45
2022/12/31 16:46:25;;;;;;;;;;;21.60;41.10;;;;;;8335464;28;20584;-42
2022/12/31 16:50:26;;;;;;;;;;;21.60;41.00;;;;;;8336175;28;20310;-45
2022/12/31 16:54:31;;;;;;;;;;;21.60;41.00;;;;;;8335568;28;20021;-46
2022/12/31 16:58:33;;;;;;;;;;;21.60;41.00;;;;;;8335144;28;20051;-44
2022/12/31 17:02:37;;;;;;;;;;;21.60;40.90;;;;;;8335734;28;19924;-45
2022/12/31 17:06:37;;;;;;;;;;;21.60;40.90;;;;;;8334368;28;20399;-46
2022/12/31 17:10:40;;;;;;;;;;;21.60;40.90;;;;;;8334967;28;19995;-46
2022/12/31 17:14:48;;;;;;;;;;;21.60;40.90;;;;;;8335383;28;19968;-44
2022/12/31 17:18:49;;;;;;;;;;;21.60;40.90;;;;;;8334920;28;19920;-46
2022/12/31 17:22:51;;;;;;;;;;;21.60;40.90;;;;;;8334398;28;19994;-45
2022/12/31 17:26:52;;;;;;;;;;;21.60;41.00;;;;;;8334737;28;19913;-45
2022/12/31 17:30:57;;;;;;;;;;;21.60;40.90;;;;;;8333557;28;20340;-45
2022/12/31 17:34:57;;;;;;;;;;;21.70;40.90;;;;;;8334451;28;19917;-45
2022/12/31 17:39:17;;;;;;;;;;;21.60;40.80;;;;;;8334360;28;20409;-44
2022/12/31 17:43:18;;;;;;;;;;;21.70;40.80;;;;;;8334401;28;19913;-46
2022/12/31 17:47:19;;;;;;;;;;;21.70;40.80;;;;;;8333722;28;19924;-47
2022/12/31 17:51:19;;;;;;;;;;;21.60;40.80;;;;;;8333812;28;20305;-46
2022/12/31 17:55:20;;;;;;;;;;;21.60;40.80;;;;;;8334241;28;19999;-46
2022/12/31 17:59:22;;;;;;;;;;;21.70;40.80;;;;;;8333348;28;19917;-45
2022/12/31 18:03:22;;;;;;;;;;;21.70;40.80;;;;;;8333543;28;19925;-45
2022/12/31 18:07:23;;;;;;;;;;;21.70;40.80;;;;;;8333204;28;19945;-44
2022/12/31 18:11:24;;;;;;;;;;;21.70;40.80;;;;;;8333038;28;19945;-45
2022/12/31 18:15:24;;;;;;;;;;;21.70;40.80;;;;;;8333539;28;19917;-44
2022/12/31 18:19:25;;;;;;;;;;;21.70;40.70;;;;;;8332681;28;19963;-45
2022/12/31 18:23:30;;;;;;;;;;;21.70;40.70;;;;;;8333268;28;19957;-45
2022/12/31 18:27:32;;;;;;;;;;;21.70;40.70;;;;;;8333000;28;19917;-45
2022/12/31 18:31:33;;;;;;;;;;;21.70;41.20;;;;;;8332350;28;20016;-45
2022/12/31 18:35:33;;;;;;;;;;;21.70;40.70;;;;;;8332979;28;19914;-45
2022/12/31 18:39:34;;;;;;;;;;;21.70;40.60;;;;;;8332593;28;19917;-45
2022/12/31 18:43:34;;;;;;;;;;;21.70;40.70;;;;;;8331887;28;19932;-45
2022/12/31 18:47:34;;;;;;;;;;;21.70;40.60;;;;;;8332489;28;19917;-45
2022/12/31 18:51:35;;;;;;;;;;;21.70;40.60;;;;;;8332045;28;19929;-46
2022/12/31 18:55:40;;;;;;;;;;;21.70;40.70;;;;;;8331848;28;20476;-45
2022/12/31 18:59:40;;;;;;;;;;;21.70;40.60;;;;;;8331924;28;20262;-44
2022/12/31 19:03:41;;;;;;;;;;;21.70;40.50;;;;;;8332379;28;19921;-44
2022/12/31 19:07:41;;;;;;;;;;;21.70;40.50;;;;;;8331872;28;20383;-46
2022/12/31 19:11:42;;;;;;;;;;;21.70;40.50;;;;;;8331688;28;19917;-46
2022/12/31 19:15:44;;;;;;;;;;;21.70;40.50;;;;;;8332185;28;20393;-44
2022/12/31 19:19:44;;;;;;;;;;;21.70;40.50;;;;;;8330863;28;19917;-44
2022/12/31 19:23:45;;;;;;;;;;;21.70;40.50;;;;;;8331076;28;19963;-44
2022/12/31 19:27:46;;;;;;;;;;;21.70;40.50;;;;;;8330804;28;19918;-44
2022/12/31 19:31:46;;;;;;;;;;;21.70;40.40;;;;;;8330355;28;19963;-43
2022/12/31 19:35:47;;;;;;;;;;;21.70;40.40;;;;;;8331273;28;19917;-43
2022/12/31 19:39:48;;;;;;;;;;;21.70;40.50;;;;;;8330667;28;19928;-44
2022/12/31 19:43:48;;;;;;;;;;;21.70;40.40;;;;;;8330082;28;19991;-44
2022/12/31 19:47:48;;;;;;;;;;;21.70;40.40;;;;;;8330392;28;19964;-45
2022/12/31 19:51:49;;;;;;;;;;;21.70;40.40;;;;;;8330702;28;19975;-44
2022/12/31 19:55:50;;;;;;;;;;;21.70;40.40;;;;;;8329636;28;20390;-44
2022/12/31 19:59:50;;;;;;;;;;;21.70;40.40;;;;;;8330555;28;20378;-44
2022/12/31 20:03:51;;;;;;;;;;;21.70;40.90;;;;;;8315161;28;20000;-44
2022/12/31 20:07:51;;;;;;;;;;;21.70;40.30;;;;;;8305137;28;19987;-44
2022/12/31 20:11:51;;;;;;;;;;;21.70;40.30;;;;;;8330283;28;19913;-45
2022/12/31 20:15:52;;;;;;;;;;;21.70;40.30;;;;;;8329872;28;19917;-45
2022/12/31 20:19:53;;;;;;;;;;;21.70;40.30;;;;;;8330197;28;19917;-45
2022/12/31 20:23:53;;;;;;;;;;;21.70;40.30;;;;;;8329827;28;20386;-45
2022/12/31 20:27:54;;;;;;;;;;;21.70;40.30;;;;;;8329993;28;19929;-44
2022/12/31 20:31:55;;;;;;;;;;;21.70;40.30;;;;;;8329551;28;20374;-44
2022/12/31 20:35:59;;;;;;;;;;;21.70;40.30;;;;;;8329614;28;20408;-45
2022/12/31 20:40:00;;;;;;;;;;;21.70;40.30;;;;;;8329742;28;19924;-44
2022/12/31 20:44:00;;;;;;;;;;;21.70;40.30;;;;;;8329308;28;20017;-44
2022/12/31 20:48:01;;;;;;;;;;;21.70;40.20;;;;;;8329743;28;20302;-45
2022/12/31 20:52:04;;;;;;;;;;;21.70;40.30;;;;;;8330009;28;19921;-44
2022/12/31 20:56:05;;;;;;;;;;;21.70;40.20;;;;;;8328896;28;19917;-45
2022/12/31 21:00:06;;;;;;;;;;;21.70;40.20;;;;;;8329383;28;19917;-45
2022/12/31 21:04:06;;;;;;;;;;;21.70;40.20;;;;;;8329299;28;19917;-45
2022/12/31 21:08:07;;;;;;;;;;;21.70;40.10;;;;;;8333011;28;20440;-44
2022/12/31 21:16:27;;;;;;;;;;;21.60;40.00;;;;;;8335008;28;19951;-44
2022/12/31 21:20:27;;;;;;;;;;;21.60;40.00;;;;;;8334964;28;19917;-45
2022/12/31 21:24:28;;;;;;;;;;;21.60;40.00;;;;;;8334823;28;19917;-45
2022/12/31 21:28:29;;;;;;;;;;;21.50;39.90;;;;;;8334246;28;19947;-44
2022/12/31 21:32:29;;;;;;;;;;;21.50;40.00;;;;;;8334674;28;19959;-45
2022/12/31 21:36:30;;;;;;;;;;;21.50;40.00;;;;;;8334875;28;19917;-45
2022/12/31 21:40:30;;;;;;;;;;;21.40;40.00;;;;;;8333807;28;19923;-45
2022/12/31 21:44:30;;;;;;;;;;;21.40;40.00;;;;;;8333919;28;19963;-45
2022/12/31 21:48:31;;;;;;;;;;;21.40;40.10;;;;;;8334034;28;19976;-44
2022/12/31 21:52:33;;;;;;;;;;;21.30;40.10;;;;;;8334295;28;20321;-45
2022/12/31 21:56:34;;;;;;;;;;;21.30;40.00;;;;;;8333862;28;19917;-45
2022/12/31 22:04:53;;;;;;;;;;;21.30;40.00;;;;;;8334525;28;20420;-46
2022/12/31 22:08:54;;;;;;;;;;;21.30;40.00;;;;;;8333333;28;19948;-46
2022/12/31 22:12:55;;;;;;;;;;;21.20;39.90;;;;;;8333454;28;19971;-46
2022/12/31 22:16:55;;;;;;;;;;;21.20;40.00;;;;;;8332539;28;20418;-46
2022/12/31 22:20:59;;;;;;;;;;;21.20;40.00;;;;;;8333006;28;19917;-46
2022/12/31 22:24:59;;;;;;;;;;;21.10;39.90;;;;;;8333029;28;19972;-46
2022/12/31 22:29:00;;;;;;;;;;;21.10;40.00;;;;;;8332353;28;19925;-46
2022/12/31 22:33:00;;;;;;;;;;;21.10;40.10;;;;;;8332979;28;20000;-45
2022/12/31 22:37:01;;;;;;;;;;;21.00;40.10;;;;;;8332806;28;19996;-46
2022/12/31 22:41:05;;;;;;;;;;;21.00;40.10;;;;;;8332048;28;19921;-46
2022/12/31 22:45:06;;;;;;;;;;;21.00;40.10;;;;;;8332275;28;19917;-46
2022/12/31 22:49:08;;;;;;;;;;;21.00;40.10;;;;;;8332053;28;19961;-45
2022/12/31 22:53:09;;;;;;;;;;;20.90;40.00;;;;;;8331640;28;19944;-46
2022/12/31 22:57:09;;;;;;;;;;;20.90;40.10;;;;;;8332283;28;19918;-43
2022/12/31 23:01:28;;;;;;;;;;;20.90;40.00;;;;;;8327196;28;19917;-45
2022/12/31 23:05:28;;;;;;;;;;;20.90;40.00;;;;;;8319385;28;19917;-46
2022/12/31 23:26:45;;;;;;;;;;;20.80;40.10;;;;;;8338173;28;19924;-46
2022/12/31 23:30:46;;;;;;;;;;;20.80;40.10;;;;;;8330145;28;20382;-45
2022/12/31 23:34:46;;;;;;;;;;;20.70;40.00;;;;;;8330709;28;20461;-46
2022/12/31 23:38:47;;;;;;;;;;;20.70;40.00;;;;;;8330642;28;20271;-44
2022/12/31 23:42:48;;;;;;;;;;;20.70;40.10;;;;;;8330871;28;19917;-45
2022/12/31 23:46:48;;;;;;;;;;;20.70;40.10;;;;;;8330163;28;20374;-45
2022/12/31 23:50:49;;;;;;;;;;;20.70;40.10;;;;;;8330469;28;19925;-45
2022/12/31 23:54:50;;;;;;;;;;;20.60;40.10;;;;;;8330489;28;19917;-45
2022/12/31 23:58:54;;;;;;;;;;;20.60;40.10;;;;;;8329791;28;19918;-45
